sensor_id;sensor_type;location;lat;lon;timestamp;temperature;humidity
19870;DHT22;10097;50.862;4.696;2022-11-15T00:01:47;12.50;99.90
19870;DHT22;10097;50.862;4.696;2022-11-15T00:04:13;12.50;99.90
19870;DHT22;10097;50.862;4.696;2022-11-15T00:06:38;12.60;99.90
19870;DHT22;10097;50.862;4.696;2022-11-15T00:09:04;12.60;99.90
19870;DHT22;10097;50.862;4.696;2022-11-15T00:11:29;12.60;99.90
19870;DHT22;10097;50.862;4.696;2022-11-15T00:13:56;12.70;99.90
19870;DHT22;10097;50.862;4.696;2022-11-15T00:16:22;12.70;99.90
19870;DHT22;10097;50.862;4.696;2022-11-15T00:18:48;12.70;99.90
19870;DHT22;10097;50.862;4.696;2022-11-15T00:21:14;12.70;99.90
19870;DHT22;10097;50.862;4.696;2022-11-15T00:23:41;12.70;99.90
19870;DHT22;10097;50.862;4.696;2022-11-15T00:26:08;12.70;99.90
19870;DHT22;10097;50.862;4.696;2022-11-15T00:28:36;12.70;99.90
19870;DHT22;10097;50.862;4.696;2022-11-15T00:31:03;12.80;99.90
19870;DHT22;10097;50.862;4.696;2022-11-15T00:33:29;12.80;99.90
19870;DHT22;10097;50.862;4.696;2022-11-15T00:36:03;12.90;99.90
19870;DHT22;10097;50.862;4.696;2022-11-15T00:38:33;12.90;99.90
19870;DHT22;10097;50.862;4.696;2022-11-15T00:41:00;13.00;99.90
19870;DHT22;10097;50.862;4.696;2022-11-15T00:43:26;13.00;99.90
19870;DHT22;10097;50.862;4.696;2022-11-15T00:45:52;13.00;99.90
19870;DHT22;10097;50.862;4.696;2022-11-15T00:48:17;13.00;99.90
19870;DHT22;10097;50.862;4.696;2022-11-15T00:50:43;13.00;99.90
19870;DHT22;10097;50.862;4.696;2022-11-15T00:53:09;13.00;99.90
19870;DHT22;10097;50.862;4.696;2022-11-15T00:55:35;13.00;99.90
19870;DHT22;10097;50.862;4.696;2022-11-15T00:58:01;12.90;99.90
19870;DHT22;10097;50.862;4.696;2022-11-15T01:00:26;13.00;99.90
19870;DHT22;10097;50.862;4.696;2022-11-15T01:02:52;13.00;99.90
19870;DHT22;10097;50.862;4.696;2022-11-15T01:05:18;13.00;99.90
19870;DHT22;10097;50.862;4.696;2022-11-15T01:07:44;13.00;99.90
19870;DHT22;10097;50.862;4.696;2022-11-15T01:10:09;13.00;99.90
19870;DHT22;10097;50.862;4.696;2022-11-15T01:12:35;13.10;99.90
19870;DHT22;10097;50.862;4.696;2022-11-15T01:15:01;13.10;99.90
19870;DHT22;10097;50.862;4.696;2022-11-15T01:17:26;13.20;99.90
19870;DHT22;10097;50.862;4.696;2022-11-15T01:19:52;13.20;99.90
19870;DHT22;10097;50.862;4.696;2022-11-15T01:22:18;13.20;99.90
19870;DHT22;10097;50.862;4.696;2022-11-15T01:24:43;13.20;99.90
19870;DHT22;10097;50.862;4.696;2022-11-15T01:27:09;13.20;99.90
19870;DHT22;10097;50.862;4.696;2022-11-15T01:29:35;13.30;99.90
19870;DHT22;10097;50.862;4.696;2022-11-15T01:32:01;13.30;99.90
19870;DHT22;10097;50.862;4.696;2022-11-15T01:34:26;13.30;99.90
19870;DHT22;10097;50.862;4.696;2022-11-15T01:36:52;13.40;99.90
19870;DHT22;10097;50.862;4.696;2022-11-15T01:39:18;13.30;99.90
19870;DHT22;10097;50.862;4.696;2022-11-15T01:41:43;13.30;99.90
19870;DHT22;10097;50.862;4.696;2022-11-15T01:46:53;13.20;99.90
19870;DHT22;10097;50.862;4.696;2022-11-15T01:49:21;13.20;99.90
19870;DHT22;10097;50.862;4.696;2022-11-15T01:51:48;13.10;99.90
19870;DHT22;10097;50.862;4.696;2022-11-15T01:54:16;13.00;99.90
19870;DHT22;10097;50.862;4.696;2022-11-15T01:56:57;13.10;99.90
19870;DHT22;10097;50.862;4.696;2022-11-15T01:59:23;13.20;99.90
19870;DHT22;10097;50.862;4.696;2022-11-15T02:01:49;13.30;99.90
19870;DHT22;10097;50.862;4.696;2022-11-15T02:04:28;13.20;99.90
19870;DHT22;10097;50.862;4.696;2022-11-15T02:06:55;13.20;99.90
19870;DHT22;10097;50.862;4.696;2022-11-15T02:09:21;13.20;99.90
19870;DHT22;10097;50.862;4.696;2022-11-15T02:11:47;13.30;99.90
19870;DHT22;10097;50.862;4.696;2022-11-15T02:14:15;13.30;99.90
19870;DHT22;10097;50.862;4.696;2022-11-15T02:31:00;13.30;99.90
19870;DHT22;10097;50.862;4.696;2022-11-15T02:33:42;13.30;99.90
19870;DHT22;10097;50.862;4.696;2022-11-15T02:36:16;13.40;99.90
19870;DHT22;10097;50.862;4.696;2022-11-15T02:38:58;13.40;99.90
19870;DHT22;10097;50.862;4.696;2022-11-15T02:42:02;13.40;99.90
19870;DHT22;10097;50.862;4.696;2022-11-15T02:44:45;13.40;99.90
19870;DHT22;10097;50.862;4.696;2022-11-15T02:47:14;13.50;99.90
19870;DHT22;10097;50.862;4.696;2022-11-15T02:49:50;13.50;99.90
19870;DHT22;10097;50.862;4.696;2022-11-15T02:52:18;13.60;99.90
19870;DHT22;10097;50.862;4.696;2022-11-15T02:54:55;13.60;99.90
19870;DHT22;10097;50.862;4.696;2022-11-15T03:00:10;13.60;99.90
19870;DHT22;10097;50.862;4.696;2022-11-15T03:03:05;13.60;99.90
19870;DHT22;10097;50.862;4.696;2022-11-15T03:11:03;13.70;99.90
19870;DHT22;10097;50.862;4.696;2022-11-15T03:16:17;13.60;99.90
19870;DHT22;10097;50.862;4.696;2022-11-15T03:18:49;13.50;99.90
19870;DHT22;10097;50.862;4.696;2022-11-15T03:21:19;13.50;99.90
19870;DHT22;10097;50.862;4.696;2022-11-15T03:23:47;13.60;99.90
19870;DHT22;10097;50.862;4.696;2022-11-15T03:26:15;13.50;99.90
19870;DHT22;10097;50.862;4.696;2022-11-15T03:28:57;13.50;99.90
19870;DHT22;10097;50.862;4.696;2022-11-15T03:31:29;13.50;99.90
19870;DHT22;10097;50.862;4.696;2022-11-15T03:34:32;13.50;99.90
19870;DHT22;10097;50.862;4.696;2022-11-15T03:37:00;13.50;99.90
19870;DHT22;10097;50.862;4.696;2022-11-15T03:39:26;13.50;99.90
19870;DHT22;10097;50.862;4.696;2022-11-15T03:42:06;13.40;99.90
19870;DHT22;10097;50.862;4.696;2022-11-15T03:44:50;13.40;99.90
19870;DHT22;10097;50.862;4.696;2022-11-15T03:47:29;13.30;99.90
19870;DHT22;10097;50.862;4.696;2022-11-15T03:50:00;13.30;99.90
19870;DHT22;10097;50.862;4.696;2022-11-15T03:52:31;13.30;99.90
19870;DHT22;10097;50.862;4.696;2022-11-15T03:55:01;13.30;99.90
19870;DHT22;10097;50.862;4.696;2022-11-15T03:57:27;13.20;99.90
19870;DHT22;10097;50.862;4.696;2022-11-15T03:59:53;13.10;99.90
19870;DHT22;10097;50.862;4.696;2022-11-15T04:02:18;13.00;99.90
19870;DHT22;10097;50.862;4.696;2022-11-15T04:04:44;13.00;99.90
19870;DHT22;10097;50.862;4.696;2022-11-15T04:07:09;12.90;99.90
19870;DHT22;10097;50.862;4.696;2022-11-15T04:09:35;13.00;99.90
19870;DHT22;10097;50.862;4.696;2022-11-15T04:12:23;13.00;99.90
19870;DHT22;10097;50.862;4.696;2022-11-15T04:17:40;12.90;99.90
19870;DHT22;10097;50.862;4.696;2022-11-15T04:20:30;12.90;99.90
19870;DHT22;10097;50.862;4.696;2022-11-15T04:23:18;12.90;99.90
19870;DHT22;10097;50.862;4.696;2022-11-15T04:26:06;12.90;99.90
19870;DHT22;10097;50.862;4.696;2022-11-15T04:28:32;12.90;99.90
19870;DHT22;10097;50.862;4.696;2022-11-15T04:30:58;12.90;99.90
19870;DHT22;10097;50.862;4.696;2022-11-15T04:33:24;12.90;99.90
19870;DHT22;10097;50.862;4.696;2022-11-15T04:35:50;12.80;99.90
19870;DHT22;10097;50.862;4.696;2022-11-15T04:38:34;12.80;99.90
19870;DHT22;10097;50.862;4.696;2022-11-15T04:41:00;12.70;99.90
19870;DHT22;10097;50.862;4.696;2022-11-15T04:43:27;12.60;99.90
19870;DHT22;10097;50.862;4.696;2022-11-15T04:45:52;12.50;99.90
19870;DHT22;10097;50.862;4.696;2022-11-15T04:48:18;12.50;99.90
19870;DHT22;10097;50.862;4.696;2022-11-15T04:50:44;12.50;99.90
19870;DHT22;10097;50.862;4.696;2022-11-15T04:53:09;12.50;99.90
19870;DHT22;10097;50.862;4.696;2022-11-15T04:55:35;12.40;99.90
19870;DHT22;10097;50.862;4.696;2022-11-15T04:58:01;12.40;99.90
19870;DHT22;10097;50.862;4.696;2022-11-15T05:00:28;12.40;99.90
19870;DHT22;10097;50.862;4.696;2022-11-15T05:02:55;12.40;99.90
19870;DHT22;10097;50.862;4.696;2022-11-15T05:05:40;12.30;99.90
19870;DHT22;10097;50.862;4.696;2022-11-15T05:08:06;12.30;99.90
19870;DHT22;10097;50.862;4.696;2022-11-15T05:10:31;12.30;99.90
19870;DHT22;10097;50.862;4.696;2022-11-15T05:12:57;12.20;99.90
19870;DHT22;10097;50.862;4.696;2022-11-15T05:15:23;12.10;99.90
19870;DHT22;10097;50.862;4.696;2022-11-15T05:17:48;12.10;99.90
19870;DHT22;10097;50.862;4.696;2022-11-15T05:20:14;12.00;99.90
19870;DHT22;10097;50.862;4.696;2022-11-15T05:22:40;12.00;99.90
19870;DHT22;10097;50.862;4.696;2022-11-15T05:25:06;12.00;99.90
19870;DHT22;10097;50.862;4.696;2022-11-15T05:27:33;12.00;99.90
19870;DHT22;10097;50.862;4.696;2022-11-15T05:29:59;12.10;99.90
19870;DHT22;10097;50.862;4.696;2022-11-15T05:32:24;12.10;99.90
19870;DHT22;10097;50.862;4.696;2022-11-15T05:34:50;12.00;99.90
19870;DHT22;10097;50.862;4.696;2022-11-15T05:37:16;11.90;99.90
19870;DHT22;10097;50.862;4.696;2022-11-15T05:39:42;11.80;99.90
19870;DHT22;10097;50.862;4.696;2022-11-15T05:42:11;11.80;99.90
19870;DHT22;10097;50.862;4.696;2022-11-15T05:44:40;11.80;99.90
19870;DHT22;10097;50.862;4.696;2022-11-15T05:47:09;11.80;99.90
19870;DHT22;10097;50.862;4.696;2022-11-15T05:49:37;11.70;99.90
19870;DHT22;10097;50.862;4.696;2022-11-15T05:52:06;11.60;99.90
19870;DHT22;10097;50.862;4.696;2022-11-15T05:54:33;11.50;99.90
19870;DHT22;10097;50.862;4.696;2022-11-15T05:56:59;11.50;99.90
19870;DHT22;10097;50.862;4.696;2022-11-15T05:59:25;11.40;99.90
19870;DHT22;10097;50.862;4.696;2022-11-15T06:01:53;11.40;99.90
19870;DHT22;10097;50.862;4.696;2022-11-15T06:04:19;11.30;99.90
19870;DHT22;10097;50.862;4.696;2022-11-15T06:06:44;11.30;99.90
19870;DHT22;10097;50.862;4.696;2022-11-15T06:09:10;11.30;99.90
19870;DHT22;10097;50.862;4.696;2022-11-15T06:11:35;11.30;99.90
19870;DHT22;10097;50.862;4.696;2022-11-15T06:14:01;11.20;99.90
19870;DHT22;10097;50.862;4.696;2022-11-15T06:16:27;11.20;99.90
19870;DHT22;10097;50.862;4.696;2022-11-15T06:18:52;11.10;99.90
19870;DHT22;10097;50.862;4.696;2022-11-15T06:21:18;11.10;99.90
19870;DHT22;10097;50.862;4.696;2022-11-15T06:23:43;11.00;99.90
19870;DHT22;10097;50.862;4.696;2022-11-15T06:26:10;10.90;99.90
19870;DHT22;10097;50.862;4.696;2022-11-15T06:28:36;10.90;99.90
19870;DHT22;10097;50.862;4.696;2022-11-15T06:31:06;10.90;99.90
19870;DHT22;10097;50.862;4.696;2022-11-15T06:33:32;10.70;99.90
19870;DHT22;10097;50.862;4.696;2022-11-15T06:36:06;10.70;99.90
19870;DHT22;10097;50.862;4.696;2022-11-15T06:38:33;10.70;99.90
19870;DHT22;10097;50.862;4.696;2022-11-15T06:41:06;10.60;99.90
19870;DHT22;10097;50.862;4.696;2022-11-15T06:43:32;10.60;99.90
19870;DHT22;10097;50.862;4.696;2022-11-15T06:45:59;10.50;99.90
19870;DHT22;10097;50.862;4.696;2022-11-15T06:48:25;10.40;99.90
19870;DHT22;10097;50.862;4.696;2022-11-15T06:50:52;10.40;99.90
19870;DHT22;10097;50.862;4.696;2022-11-15T06:53:18;10.40;99.90
19870;DHT22;10097;50.862;4.696;2022-11-15T06:55:44;10.40;99.90
19870;DHT22;10097;50.862;4.696;2022-11-15T06:58:09;10.30;99.90
19870;DHT22;10097;50.862;4.696;2022-11-15T07:00:35;10.30;99.90
19870;DHT22;10097;50.862;4.696;2022-11-15T07:03:01;10.20;99.90
19870;DHT22;10097;50.862;4.696;2022-11-15T07:05:27;10.10;99.90
19870;DHT22;10097;50.862;4.696;2022-11-15T07:07:53;10.20;99.90
19870;DHT22;10097;50.862;4.696;2022-11-15T07:10:20;10.10;99.90
19870;DHT22;10097;50.862;4.696;2022-11-15T07:12:48;10.10;99.90
19870;DHT22;10097;50.862;4.696;2022-11-15T07:15:15;10.10;99.90
19870;DHT22;10097;50.862;4.696;2022-11-15T07:17:41;10.10;99.90
19870;DHT22;10097;50.862;4.696;2022-11-15T07:20:07;10.10;99.90
19870;DHT22;10097;50.862;4.696;2022-11-15T07:22:33;10.10;99.90
19870;DHT22;10097;50.862;4.696;2022-11-15T07:24:58;10.10;99.90
19870;DHT22;10097;50.862;4.696;2022-11-15T07:27:24;10.00;99.90
19870;DHT22;10097;50.862;4.696;2022-11-15T07:29:50;10.00;99.90
19870;DHT22;10097;50.862;4.696;2022-11-15T07:32:15;10.00;99.90
19870;DHT22;10097;50.862;4.696;2022-11-15T07:34:41;10.10;99.90
19870;DHT22;10097;50.862;4.696;2022-11-15T07:37:06;10.10;99.90
19870;DHT22;10097;50.862;4.696;2022-11-15T07:39:32;10.10;99.90
19870;DHT22;10097;50.862;4.696;2022-11-15T07:41:59;10.10;99.90
19870;DHT22;10097;50.862;4.696;2022-11-15T07:44:42;10.20;99.90
19870;DHT22;10097;50.862;4.696;2022-11-15T07:47:08;10.20;99.90
19870;DHT22;10097;50.862;4.696;2022-11-15T07:49:34;10.10;99.90
19870;DHT22;10097;50.862;4.696;2022-11-15T07:51:59;10.10;99.90
19870;DHT22;10097;50.862;4.696;2022-11-15T07:54:25;10.10;99.90
19870;DHT22;10097;50.862;4.696;2022-11-15T07:56:50;10.10;99.90
19870;DHT22;10097;50.862;4.696;2022-11-15T07:59:16;10.10;99.90
19870;DHT22;10097;50.862;4.696;2022-11-15T08:01:42;10.10;99.90
19870;DHT22;10097;50.862;4.696;2022-11-15T08:04:07;10.20;99.90
19870;DHT22;10097;50.862;4.696;2022-11-15T08:06:35;10.30;99.90
19870;DHT22;10097;50.862;4.696;2022-11-15T08:09:00;10.30;99.90
19870;DHT22;10097;50.862;4.696;2022-11-15T08:11:26;10.30;99.90
19870;DHT22;10097;50.862;4.696;2022-11-15T08:13:51;10.20;99.90
19870;DHT22;10097;50.862;4.696;2022-11-15T08:16:17;10.20;99.90
19870;DHT22;10097;50.862;4.696;2022-11-15T08:18:43;10.20;99.90
19870;DHT22;10097;50.862;4.696;2022-11-15T08:21:09;10.20;99.90
19870;DHT22;10097;50.862;4.696;2022-11-15T08:23:37;10.20;99.90
19870;DHT22;10097;50.862;4.696;2022-11-15T08:26:04;10.30;99.90
19870;DHT22;10097;50.862;4.696;2022-11-15T08:28:31;10.30;99.90
19870;DHT22;10097;50.862;4.696;2022-11-15T08:30:56;10.40;99.90
19870;DHT22;10097;50.862;4.696;2022-11-15T08:33:22;10.40;99.90
19870;DHT22;10097;50.862;4.696;2022-11-15T08:35:48;10.40;99.90
19870;DHT22;10097;50.862;4.696;2022-11-15T08:38:14;10.40;99.90
19870;DHT22;10097;50.862;4.696;2022-11-15T08:40:40;10.40;99.90
19870;DHT22;10097;50.862;4.696;2022-11-15T08:43:05;10.40;99.90
19870;DHT22;10097;50.862;4.696;2022-11-15T08:45:33;10.40;99.90
19870;DHT22;10097;50.862;4.696;2022-11-15T08:48:01;10.40;99.90
19870;DHT22;10097;50.862;4.696;2022-11-15T08:50:27;10.50;99.90
19870;DHT22;10097;50.862;4.696;2022-11-15T08:52:52;10.50;99.90
19870;DHT22;10097;50.862;4.696;2022-11-15T08:55:18;10.60;99.90
19870;DHT22;10097;50.862;4.696;2022-11-15T08:57:44;10.70;99.90
19870;DHT22;10097;50.862;4.696;2022-11-15T09:00:10;10.70;99.90
19870;DHT22;10097;50.862;4.696;2022-11-15T09:02:38;10.80;99.90
19870;DHT22;10097;50.862;4.696;2022-11-15T09:05:04;10.80;99.90
19870;DHT22;10097;50.862;4.696;2022-11-15T09:07:30;10.90;99.90
19870;DHT22;10097;50.862;4.696;2022-11-15T09:09:57;11.10;99.90
19870;DHT22;10097;50.862;4.696;2022-11-15T09:12:23;11.10;99.90
19870;DHT22;10097;50.862;4.696;2022-11-15T09:14:49;11.20;99.90
19870;DHT22;10097;50.862;4.696;2022-11-15T09:17:14;11.30;99.90
19870;DHT22;10097;50.862;4.696;2022-11-15T09:19:40;11.20;99.90
19870;DHT22;10097;50.862;4.696;2022-11-15T09:22:07;11.20;99.90
19870;DHT22;10097;50.862;4.696;2022-11-15T09:24:33;11.20;99.90
19870;DHT22;10097;50.862;4.696;2022-11-15T09:26:59;11.20;99.90
19870;DHT22;10097;50.862;4.696;2022-11-15T09:29:24;11.30;99.90
19870;DHT22;10097;50.862;4.696;2022-11-15T09:31:52;11.40;99.90
19870;DHT22;10097;50.862;4.696;2022-11-15T09:34:18;11.50;99.90
19870;DHT22;10097;50.862;4.696;2022-11-15T09:36:43;11.50;99.90
19870;DHT22;10097;50.862;4.696;2022-11-15T09:39:09;11.50;99.90
19870;DHT22;10097;50.862;4.696;2022-11-15T09:44:42;11.60;99.90
19870;DHT22;10097;50.862;4.696;2022-11-15T09:49:59;11.80;99.90
19870;DHT22;10097;50.862;4.696;2022-11-15T09:52:25;11.90;99.90
19870;DHT22;10097;50.862;4.696;2022-11-15T09:54:52;11.90;99.90
19870;DHT22;10097;50.862;4.696;2022-11-15T10:05:23;12.00;99.90
19870;DHT22;10097;50.862;4.696;2022-11-15T10:07:58;12.10;99.90
19870;DHT22;10097;50.862;4.696;2022-11-15T10:10:47;12.10;99.90
19870;DHT22;10097;50.862;4.696;2022-11-15T10:13:24;12.00;99.90
19870;DHT22;10097;50.862;4.696;2022-11-15T10:15:53;12.10;99.90
19870;DHT22;10097;50.862;4.696;2022-11-15T10:21:20;12.10;99.90
19870;DHT22;10097;50.862;4.696;2022-11-15T10:23:47;12.20;99.90
19870;DHT22;10097;50.862;4.696;2022-11-15T10:26:16;12.20;99.90
19870;DHT22;10097;50.862;4.696;2022-11-15T10:28:42;12.40;99.90
19870;DHT22;10097;50.862;4.696;2022-11-15T10:31:26;12.60;99.90
19870;DHT22;10097;50.862;4.696;2022-11-15T10:37:01;12.80;99.90
19870;DHT22;10097;50.862;4.696;2022-11-15T10:39:29;12.70;99.90
19870;DHT22;10097;50.862;4.696;2022-11-15T10:41:55;12.70;99.90
19870;DHT22;10097;50.862;4.696;2022-11-15T10:44:24;12.70;99.90
19870;DHT22;10097;50.862;4.696;2022-11-15T10:49:27;13.00;99.90
19870;DHT22;10097;50.862;4.696;2022-11-15T10:54:40;13.30;99.90
19870;DHT22;10097;50.862;4.696;2022-11-15T10:57:15;13.50;99.90
19870;DHT22;10097;50.862;4.696;2022-11-15T11:03:25;13.40;99.90
19870;DHT22;10097;50.862;4.696;2022-11-15T11:06:21;13.40;99.90
19870;DHT22;10097;50.862;4.696;2022-11-15T11:08:55;13.50;99.90
19870;DHT22;10097;50.862;4.696;2022-11-15T11:11:21;13.50;99.90
19870;DHT22;10097;50.862;4.696;2022-11-15T11:13:47;13.60;99.90
19870;DHT22;10097;50.862;4.696;2022-11-15T11:26:52;14.00;99.90
19870;DHT22;10097;50.862;4.696;2022-11-15T11:31:58;14.20;99.90
19870;DHT22;10097;50.862;4.696;2022-11-15T11:35:29;14.40;99.90
19870;DHT22;10097;50.862;4.696;2022-11-15T11:40:20;14.80;99.90
19870;DHT22;10097;50.862;4.696;2022-11-15T11:51:54;14.90;99.90
19870;DHT22;10097;50.862;4.696;2022-11-15T11:54:03;15.00;99.90
19870;DHT22;10097;50.862;4.696;2022-11-15T11:56:33;15.20;99.90
19870;DHT22;10097;50.862;4.696;2022-11-15T12:01:43;15.40;99.90
19870;DHT22;10097;50.862;4.696;2022-11-15T12:04:20;15.40;99.90
19870;DHT22;10097;50.862;4.696;2022-11-15T12:06:53;15.30;99.90
19870;DHT22;10097;50.862;4.696;2022-11-15T12:17:34;15.30;99.90
19870;DHT22;10097;50.862;4.696;2022-11-15T12:20:17;15.20;99.90
19870;DHT22;10097;50.862;4.696;2022-11-15T12:23:05;15.10;99.90
19870;DHT22;10097;50.862;4.696;2022-11-15T12:26:22;15.20;99.90
19870;DHT22;10097;50.862;4.696;2022-11-15T12:28:42;15.20;99.90
19870;DHT22;10097;50.862;4.696;2022-11-15T12:33:45;15.10;99.90
19870;DHT22;10097;50.862;4.696;2022-11-15T12:36:12;15.00;99.90
19870;DHT22;10097;50.862;4.696;2022-11-15T12:38:58;14.80;99.90
19870;DHT22;10097;50.862;4.696;2022-11-15T12:41:37;14.80;99.90
19870;DHT22;10097;50.862;4.696;2022-11-15T12:44:03;14.90;99.90
19870;DHT22;10097;50.862;4.696;2022-11-15T12:49:00;14.90;99.90
19870;DHT22;10097;50.862;4.696;2022-11-15T13:02:25;15.20;99.90
19870;DHT22;10097;50.862;4.696;2022-11-15T13:04:53;15.10;99.90
19870;DHT22;10097;50.862;4.696;2022-11-15T13:12:55;15.30;99.90
19870;DHT22;10097;50.862;4.696;2022-11-15T13:17:55;15.40;99.90
19870;DHT22;10097;50.862;4.696;2022-11-15T13:20:31;15.50;99.90
19870;DHT22;10097;50.862;4.696;2022-11-15T13:23:10;15.60;99.90
19870;DHT22;10097;50.862;4.696;2022-11-15T13:28:31;15.90;99.90
19870;DHT22;10097;50.862;4.696;2022-11-15T13:31:03;15.80;99.90
19870;DHT22;10097;50.862;4.696;2022-11-15T13:33:39;15.70;99.90
19870;DHT22;10097;50.862;4.696;2022-11-15T13:36:18;15.70;99.90
19870;DHT22;10097;50.862;4.696;2022-11-15T13:38:44;15.60;99.90
19870;DHT22;10097;50.862;4.696;2022-11-15T13:41:31;15.50;99.90
19870;DHT22;10097;50.862;4.696;2022-11-15T13:43:58;15.40;99.90
19870;DHT22;10097;50.862;4.696;2022-11-15T13:46:31;15.30;99.90
19870;DHT22;10097;50.862;4.696;2022-11-15T13:49:04;15.30;99.90
19870;DHT22;10097;50.862;4.696;2022-11-15T13:56:33;15.30;99.90
19870;DHT22;10097;50.862;4.696;2022-11-15T13:59:00;15.30;99.90
19870;DHT22;10097;50.862;4.696;2022-11-15T14:01:28;15.30;99.90
19870;DHT22;10097;50.862;4.696;2022-11-15T14:03:58;15.40;99.90
19870;DHT22;10097;50.862;4.696;2022-11-15T14:06:27;15.40;99.90
19870;DHT22;10097;50.862;4.696;2022-11-15T14:11:35;15.30;99.90
19870;DHT22;10097;50.862;4.696;2022-11-15T14:16:45;15.30;99.90
19870;DHT22;10097;50.862;4.696;2022-11-15T14:22:29;15.20;99.90
19870;DHT22;10097;50.862;4.696;2022-11-15T14:25:15;15.20;99.90
19870;DHT22;10097;50.862;4.696;2022-11-15T14:27:44;15.20;99.90
19870;DHT22;10097;50.862;4.696;2022-11-15T14:30:14;15.30;99.90
19870;DHT22;10097;50.862;4.696;2022-11-15T14:32:48;14.90;99.90
19870;DHT22;10097;50.862;4.696;2022-11-15T14:35:20;14.70;99.90
19870;DHT22;10097;50.862;4.696;2022-11-15T14:37:46;14.40;99.90
19870;DHT22;10097;50.862;4.696;2022-11-15T14:40:15;14.30;99.90
19870;DHT22;10097;50.862;4.696;2022-11-15T14:42:42;14.00;99.90
19870;DHT22;10097;50.862;4.696;2022-11-15T14:45:12;14.00;99.90
19870;DHT22;10097;50.862;4.696;2022-11-15T14:47:39;13.80;99.90
19870;DHT22;10097;50.862;4.696;2022-11-15T14:50:04;13.80;99.90
19870;DHT22;10097;50.862;4.696;2022-11-15T14:52:32;13.70;99.90
19870;DHT22;10097;50.862;4.696;2022-11-15T14:55:03;13.70;99.90
19870;DHT22;10097;50.862;4.696;2022-11-15T14:57:29;13.70;99.90
19870;DHT22;10097;50.862;4.696;2022-11-15T14:59:55;13.60;99.90
19870;DHT22;10097;50.862;4.696;2022-11-15T15:02:24;13.60;99.90
19870;DHT22;10097;50.862;4.696;2022-11-15T15:04:50;13.50;99.90
19870;DHT22;10097;50.862;4.696;2022-11-15T15:07:16;13.50;99.90
19870;DHT22;10097;50.862;4.696;2022-11-15T15:09:43;13.50;99.90
19870;DHT22;10097;50.862;4.696;2022-11-15T15:12:17;13.40;99.90
19870;DHT22;10097;50.862;4.696;2022-11-15T15:14:44;13.40;99.90
19870;DHT22;10097;50.862;4.696;2022-11-15T15:17:10;13.40;99.90
19870;DHT22;10097;50.862;4.696;2022-11-15T15:19:36;13.40;99.90
19870;DHT22;10097;50.862;4.696;2022-11-15T15:22:01;13.30;99.90
19870;DHT22;10097;50.862;4.696;2022-11-15T15:24:27;13.10;99.90
19870;DHT22;10097;50.862;4.696;2022-11-15T15:26:52;13.10;99.90
19870;DHT22;10097;50.862;4.696;2022-11-15T15:29:18;13.10;99.90
19870;DHT22;10097;50.862;4.696;2022-11-15T15:31:44;13.00;99.90
19870;DHT22;10097;50.862;4.696;2022-11-15T15:34:09;13.00;99.90
19870;DHT22;10097;50.862;4.696;2022-11-15T15:36:35;12.90;99.90
19870;DHT22;10097;50.862;4.696;2022-11-15T15:39:00;12.90;99.90
19870;DHT22;10097;50.862;4.696;2022-11-15T15:41:26;12.90;99.90
19870;DHT22;10097;50.862;4.696;2022-11-15T15:43:52;12.90;99.90
19870;DHT22;10097;50.862;4.696;2022-11-15T15:46:18;12.90;99.90
19870;DHT22;10097;50.862;4.696;2022-11-15T15:48:45;12.90;99.90
19870;DHT22;10097;50.862;4.696;2022-11-15T15:51:11;12.90;99.90
19870;DHT22;10097;50.862;4.696;2022-11-15T15:53:37;12.90;99.90
19870;DHT22;10097;50.862;4.696;2022-11-15T15:56:03;12.80;99.90
19870;DHT22;10097;50.862;4.696;2022-11-15T15:58:29;12.80;99.90
19870;DHT22;10097;50.862;4.696;2022-11-15T16:00:54;12.70;99.90
19870;DHT22;10097;50.862;4.696;2022-11-15T16:03:20;12.70;99.90
19870;DHT22;10097;50.862;4.696;2022-11-15T16:05:46;12.70;99.90
19870;DHT22;10097;50.862;4.696;2022-11-15T16:08:20;12.70;99.90
19870;DHT22;10097;50.862;4.696;2022-11-15T16:10:46;12.70;99.90
19870;DHT22;10097;50.862;4.696;2022-11-15T16:13:12;12.70;99.90
19870;DHT22;10097;50.862;4.696;2022-11-15T16:15:38;12.70;99.90
19870;DHT22;10097;50.862;4.696;2022-11-15T16:18:04;12.70;99.90
19870;DHT22;10097;50.862;4.696;2022-11-15T16:20:42;12.70;99.90
19870;DHT22;10097;50.862;4.696;2022-11-15T16:23:12;12.60;99.90
19870;DHT22;10097;50.862;4.696;2022-11-15T16:25:41;12.70;99.90
19870;DHT22;10097;50.862;4.696;2022-11-15T16:28:36;12.70;99.90
19870;DHT22;10097;50.862;4.696;2022-11-15T16:31:08;12.70;99.90
19870;DHT22;10097;50.862;4.696;2022-11-15T16:33:35;12.80;99.90
19870;DHT22;10097;50.862;4.696;2022-11-15T16:36:02;12.70;99.90
19870;DHT22;10097;50.862;4.696;2022-11-15T16:38:28;12.70;99.90
19870;DHT22;10097;50.862;4.696;2022-11-15T16:40:54;12.70;99.90
19870;DHT22;10097;50.862;4.696;2022-11-15T16:43:19;12.70;99.90
19870;DHT22;10097;50.862;4.696;2022-11-15T16:45:45;12.70;99.90
19870;DHT22;10097;50.862;4.696;2022-11-15T16:48:29;12.70;99.90
19870;DHT22;10097;50.862;4.696;2022-11-15T16:50:56;12.60;99.90
19870;DHT22;10097;50.862;4.696;2022-11-15T16:53:21;12.70;99.90
19870;DHT22;10097;50.862;4.696;2022-11-15T16:55:48;12.80;99.90
19870;DHT22;10097;50.862;4.696;2022-11-15T16:58:13;12.80;99.90
19870;DHT22;10097;50.862;4.696;2022-11-15T17:00:39;12.80;99.90
19870;DHT22;10097;50.862;4.696;2022-11-15T17:03:05;12.80;99.90
19870;DHT22;10097;50.862;4.696;2022-11-15T17:05:31;12.80;99.90
19870;DHT22;10097;50.862;4.696;2022-11-15T17:07:57;12.90;99.90
19870;DHT22;10097;50.862;4.696;2022-11-15T17:10:24;13.00;99.90
19870;DHT22;10097;50.862;4.696;2022-11-15T17:12:51;13.00;99.90
19870;DHT22;10097;50.862;4.696;2022-11-15T17:15:17;13.00;99.90
19870;DHT22;10097;50.862;4.696;2022-11-15T17:17:43;13.00;99.90
19870;DHT22;10097;50.862;4.696;2022-11-15T17:20:17;13.00;99.90
19870;DHT22;10097;50.862;4.696;2022-11-15T17:22:43;13.00;99.90
19870;DHT22;10097;50.862;4.696;2022-11-15T17:25:09;13.00;99.90
19870;DHT22;10097;50.862;4.696;2022-11-15T17:27:35;13.00;99.90
19870;DHT22;10097;50.862;4.696;2022-11-15T17:30:01;13.00;99.90
19870;DHT22;10097;50.862;4.696;2022-11-15T17:32:26;13.00;99.90
19870;DHT22;10097;50.862;4.696;2022-11-15T17:34:52;13.00;99.90
19870;DHT22;10097;50.862;4.696;2022-11-15T17:37:18;13.10;99.90
19870;DHT22;10097;50.862;4.696;2022-11-15T17:39:43;13.00;99.90
19870;DHT22;10097;50.862;4.696;2022-11-15T17:42:09;13.10;99.90
19870;DHT22;10097;50.862;4.696;2022-11-15T17:44:34;13.00;99.90
19870;DHT22;10097;50.862;4.696;2022-11-15T17:47:00;13.00;99.90
19870;DHT22;10097;50.862;4.696;2022-11-15T17:49:26;13.00;99.90
19870;DHT22;10097;50.862;4.696;2022-11-15T17:51:52;13.10;99.90
19870;DHT22;10097;50.862;4.696;2022-11-15T17:54:18;13.10;99.90
19870;DHT22;10097;50.862;4.696;2022-11-15T17:56:43;13.20;99.90